»·PEaware :: WAT169 KSNA-KLAS

WAT169 :: KSNA-KLAS

FLIGHT INFORMATION

Flight Status: Arrived
Operator:
Walker Air Transport
More flights by this operator :: More flights under this callsign
Pilot: Marty P. (27464)
Aircraft: BEECH AIRCRAFT SUPER KING AIR 350
(B350)
More flights by this aircraft type
Origin: KSNA John Wayne-Orange Co
United States
Destination: KLAS McCarran Intl
United States
More flights between these airports :: More routes between these airports
Route: +MUSEL8 DAG MISEN KEPEC6
File this flight plan on PilotEdge
Remarks:
Altitude:
(Current/Filed)
27,000ft
Speed:
(Current/Filed)
300kts
Departed: 06-Oct-20 05:41 PM
Arrived: 06-Oct-20 07:01 PM
Distance/Time
Traveled:
196nm/1:20
Distance/Time
To Go:
Arrived

Flight Plot

Page will automatically refresh every two minutes.

Flight plan parsing failed; only flown route is shown


Map Options




Map Legend


Flown Route
Filed Route
Departure Airport
Arrival Airport
Navaid (VOR, NDB)
Fix

Horizontal Profiles

Position Reports

Time Latitude Longitude Heading Altitude Ground
Speed
06-Oct-20 17:17 33.672243 -117.866674 209 61ft 0kts
06-Oct-20 17:18 33.672243 -117.866674 209 61ft 0kts
06-Oct-20 17:19 33.672243 -117.866674 209 61ft 0kts
06-Oct-20 17:20 33.672243 -117.866674 209 61ft 0kts
06-Oct-20 17:21 33.672243 -117.866674 209 61ft 0kts
06-Oct-20 17:22 33.672243 -117.866674 209 61ft 0kts
06-Oct-20 17:23 33.672243 -117.866674 209 61ft 0kts
06-Oct-20 17:24 33.672243 -117.866674 209 61ft 0kts
06-Oct-20 17:25 33.672243 -117.866674 209 61ft 0kts
06-Oct-20 17:26 33.672243 -117.866674 209 61ft 0kts
06-Oct-20 17:27 33.672243 -117.866674 209 61ft 0kts
06-Oct-20 17:28 33.672243 -117.866674 209 61ft 0kts
06-Oct-20 17:29 33.672243 -117.866674 209 61ft 0kts
06-Oct-20 17:30 33.672243 -117.866674 209 61ft 0kts
06-Oct-20 17:31 33.672243 -117.866674 209 61ft 0kts
06-Oct-20 17:32 33.672243 -117.866674 208 61ft 0kts
06-Oct-20 17:33 33.672243 -117.866674 208 61ft 0kts
06-Oct-20 17:34 33.672243 -117.866674 208 61ft 0kts
06-Oct-20 17:35 33.672367 -117.867468 296 61ft 11kts
06-Oct-20 17:36 33.675457 -117.865620 27 61ft 9kts
06-Oct-20 17:37 33.678185 -117.863913 26 61ft 14kts
06-Oct-20 17:38 33.680684 -117.863158 298 61ft 1kts
06-Oct-20 17:39 33.681071 -117.865432 203 61ft 0kts
06-Oct-20 17:40 33.665111 -117.875333 205 211ft 146kts
06-Oct-20 17:41 33.623376 -117.894412 194 1708ft 173kts
06-Oct-20 17:42 33.573713 -117.905493 213 2793ft 207kts
06-Oct-20 17:43 33.576910 -117.963278 301 4888ft 180kts
06-Oct-20 17:44 33.602314 -118.014468 301 7167ft 177kts
06-Oct-20 17:51 33.672232 -117.866681 209 61ft 0kts
06-Oct-20 17:52 33.672232 -117.866681 209 61ft 0kts
06-Oct-20 17:53 33.672232 -117.866681 209 61ft 0kts
06-Oct-20 17:54 33.672232 -117.866681 209 61ft 0kts
06-Oct-20 17:55 33.672232 -117.866681 209 61ft 0kts
06-Oct-20 17:56 33.672232 -117.866681 209 61ft 0kts
06-Oct-20 17:57 33.672232 -117.866681 209 61ft 0kts
06-Oct-20 17:58 33.672232 -117.866681 209 61ft 0kts
06-Oct-20 17:59 33.672232 -117.866681 209 61ft 0kts
06-Oct-20 18:00 33.672232 -117.866681 208 61ft 0kts
06-Oct-20 18:01 33.672232 -117.866681 209 61ft 0kts
06-Oct-20 18:02 33.672153 -117.866735 208 61ft 4kts
06-Oct-20 18:03 33.673930 -117.866589 28 61ft 15kts
06-Oct-20 18:04 33.677628 -117.864248 27 61ft 16kts
06-Oct-20 18:05 33.680177 -117.864109 297 61ft 14kts
06-Oct-20 18:06 33.680658 -117.865515 251 61ft 10kts
06-Oct-20 18:07 33.658305 -117.876939 189 221ft 165kts
06-Oct-20 18:08 33.608124 -117.886638 189 1644ft 193kts
06-Oct-20 18:10 33.553958 -117.896482 189 3345ft 202kts
06-Oct-20 18:11 33.547982 -117.944363 332 5058ft 189kts
06-Oct-20 18:12 33.596031 -117.968315 339 6719ft 188kts
06-Oct-20 18:13 33.645189 -117.990985 339 8451ft 192kts
06-Oct-20 18:14 33.695765 -118.014321 339 9934ft 199kts
06-Oct-20 18:15 33.748354 -118.038615 339 11893ft 206kts
06-Oct-20 18:16 33.802606 -118.038117 41 13316ft 227kts
06-Oct-20 18:17 33.850827 -117.993708 38 14939ft 235kts
06-Oct-20 18:18 33.907034 -117.942795 38 15818ft 255kts
06-Oct-20 18:19 33.964552 -117.890609 38 16913ft 262kts
06-Oct-20 18:20 34.023865 -117.836700 38 18931ft 271kts
06-Oct-20 18:21 34.084214 -117.779556 50 20665ft 280kts
06-Oct-20 18:22 34.135789 -117.709853 50 22982ft 258kts
06-Oct-20 18:23 34.173421 -117.659181 50 26563ft 195kts
06-Oct-20 18:24 34.214780 -117.603277 49 27169ft 254kts
06-Oct-20 18:24 34.255207 -117.548598 49 27200ft 269kts
06-Oct-20 18:26 34.315609 -117.466759 49 27200ft 290kts
06-Oct-20 18:27 34.370696 -117.391950 49 27195ft 305kts
06-Oct-20 18:27 34.418402 -117.327042 49 27195ft 312kts
06-Oct-20 18:29 34.486715 -117.233886 49 27194ft 322kts
06-Oct-20 18:29 34.536486 -117.165858 49 27193ft 326kts
06-Oct-20 18:30 34.596946 -117.083039 49 27202ft 329kts
06-Oct-20 18:32 34.667806 -116.985724 49 27238ft 331kts
06-Oct-20 18:33 34.728693 -116.901881 49 27041ft 330kts
06-Oct-20 18:33 34.779340 -116.831988 49 26552ft 332kts
06-Oct-20 18:34 34.840047 -116.748026 49 25558ft 332kts
06-Oct-20 18:35 34.900694 -116.663948 48 24780ft 328kts
06-Oct-20 18:36 34.960836 -116.580376 48 24171ft 328kts
06-Oct-20 18:37 35.024903 -116.500407 45 24170ft 333kts
06-Oct-20 18:38 35.069726 -116.444520 45 24168ft 339kts
06-Oct-20 18:39 35.111445 -116.392432 45 24173ft 344kts
06-Oct-20 18:40 35.180903 -116.305485 45 22704ft 350kts
06-Oct-20 18:41 35.247393 -116.222064 45 20892ft 339kts
06-Oct-20 18:42 35.313163 -116.139339 45 19115ft 342kts
06-Oct-20 18:43 35.378710 -116.056690 45 17357ft 338kts
06-Oct-20 18:44 35.443313 -115.975036 45 15389ft 327kts
06-Oct-20 18:45 35.504429 -115.897596 45 14237ft 314kts
06-Oct-20 18:46 35.563850 -115.822148 45 13042ft 298kts
06-Oct-20 18:47 35.618556 -115.752553 45 13037ft 286kts
06-Oct-20 18:48 35.674476 -115.681218 45 13035ft 291kts
06-Oct-20 18:49 35.730619 -115.609453 45 13036ft 292kts
06-Oct-20 18:50 35.787143 -115.537082 45 13036ft 293kts
06-Oct-20 18:51 35.843313 -115.464966 45 13190ft 288kts
06-Oct-20 18:52 35.898398 -115.394096 45 13182ft 286kts
06-Oct-20 18:53 35.952497 -115.322453 52 12886ft 282kts
06-Oct-20 18:54 35.994264 -115.244855 61 10720ft 265kts
06-Oct-20 18:55 36.025667 -115.165986 89 8030ft 257kts
06-Oct-20 18:56 36.040395 -115.087201 30 5340ft 245kts
06-Oct-20 18:57 36.098387 -115.062297 357 4690ft 221kts
06-Oct-20 18:58 36.128703 -115.107082 294 3596ft 142kts
06-Oct-20 18:59 36.112605 -115.148124 213 2840ft 156kts
06-Oct-20 19:00 36.085112 -115.164954 216 2144ft 17kts
06-Oct-20 19:01 36.083764 -115.166671 232 2153ft 0kts
06-Oct-20 19:02 36.083312 -115.167229 216 2156ft 11kts
06-Oct-20 19:03 36.085417 -115.167348 304 2152ft 16kts

Navigation Log

Ident Type
Flight plan parsing failed, navigation log unavailable